createdAt,value
2022-09-24T00:01:48.107Z,15.00
2022-09-24T00:04:16.265Z,15.00
2022-09-24T00:06:45.979Z,15.10
2022-09-24T00:09:16.127Z,15.00
2022-09-24T00:11:45.532Z,14.90
2022-09-24T00:14:15.557Z,15.00
2022-09-24T00:16:44.498Z,15.10
2022-09-24T00:19:13.841Z,15.10
2022-09-24T00:21:43.105Z,15.10
2022-09-24T00:24:34.826Z,15.10
2022-09-24T00:27:03.213Z,15.10
2022-09-24T00:29:34.206Z,15.10
2022-09-24T00:32:03.385Z,15.10
2022-09-24T00:34:31.572Z,15.10
2022-09-24T00:37:00.016Z,15.10
2022-09-24T00:39:28.542Z,15.10
2022-09-24T00:41:56.583Z,15.10
2022-09-24T00:47:34.851Z,15.00
2022-09-24T00:50:21.702Z,14.90
2022-09-24T00:52:53.813Z,14.80
2022-09-24T00:55:24.847Z,14.90
2022-09-24T00:57:57.245Z,14.90
2022-09-24T01:00:25.866Z,14.90
2022-09-24T01:02:59.510Z,14.90
2022-09-24T01:07:55.846Z,14.90
2022-09-24T01:10:51.310Z,14.90
2022-09-24T01:13:49.867Z,14.90
2022-09-24T01:16:27.910Z,14.90
2022-09-24T01:21:37.264Z,14.80
2022-09-24T01:24:19.852Z,14.80
2022-09-24T01:27:07.788Z,14.80
2022-09-24T01:32:35.590Z,14.80
2022-09-24T01:35:09.401Z,14.80
2022-09-24T01:40:10.713Z,14.70
2022-09-24T01:42:40.944Z,14.80
2022-09-24T01:45:10.503Z,14.80
2022-09-24T01:47:41.798Z,14.80
2022-09-24T01:50:12.205Z,14.70
2022-09-24T01:52:59.319Z,14.70
2022-09-24T01:55:31.156Z,14.80
2022-09-24T01:58:04.916Z,14.80
2022-09-24T02:00:33.181Z,14.80
2022-09-24T02:03:08.864Z,14.70
2022-09-24T02:05:42.651Z,14.70
2022-09-24T02:08:15.482Z,14.70
2022-09-24T02:10:48.191Z,14.70
2022-09-24T02:13:19.843Z,14.70
2022-09-24T02:15:51.426Z,14.70
2022-09-24T02:18:24.694Z,14.70
2022-09-24T02:20:53.600Z,14.80
2022-09-24T02:23:21.922Z,14.70
2022-09-24T02:25:54.463Z,14.70
2022-09-24T02:28:22.821Z,14.70
2022-09-24T02:30:54.909Z,14.70
2022-09-24T02:33:44.146Z,14.70
2022-09-24T02:36:13.083Z,14.60
2022-09-24T02:41:11.604Z,14.50
2022-09-24T02:43:41.113Z,14.60
2022-09-24T02:48:41.745Z,14.70
2022-09-24T02:51:11.979Z,14.60
2022-09-24T03:01:11.540Z,14.40
2022-09-24T03:03:40.900Z,14.50
2022-09-24T03:06:09.174Z,14.60
2022-09-24T03:08:37.161Z,14.60
2022-09-24T03:11:05.266Z,14.50
2022-09-24T03:13:33.293Z,14.50
2022-09-24T03:16:01.345Z,14.40
2022-09-24T03:18:29.422Z,14.40
2022-09-24T03:21:00.320Z,14.30
2022-09-24T03:23:28.765Z,14.40
2022-09-24T03:25:58.787Z,14.50
2022-09-24T03:28:27.498Z,14.40
2022-09-24T03:31:00.670Z,14.40
2022-09-24T03:33:30.692Z,14.40
2022-09-24T03:36:01.886Z,14.40
2022-09-24T03:40:59.053Z,14.40
2022-09-24T03:43:27.412Z,14.30
2022-09-24T03:45:55.846Z,14.30
2022-09-24T03:48:24.757Z,14.30
2022-09-24T03:50:52.926Z,14.30
2022-09-24T03:53:22.561Z,14.30
2022-09-24T03:55:56.799Z,14.30
2022-09-24T03:58:25.596Z,14.30
2022-09-24T04:00:55.015Z,14.30
2022-09-24T04:03:23.452Z,14.30
2022-09-24T04:05:51.923Z,14.30
2022-09-24T04:10:50.893Z,14.40
2022-09-24T04:13:19.826Z,14.40
2022-09-24T04:38:13.771Z,14.40
2022-09-24T04:40:41.889Z,14.40
2022-09-24T04:43:09.936Z,14.30
2022-09-24T04:45:39.442Z,14.40
2022-09-24T05:03:03.342Z,14.30
2022-09-24T05:05:32.282Z,14.20
2022-09-24T05:10:31.362Z,14.20
2022-09-24T05:12:59.411Z,14.10
2022-09-24T05:15:27.662Z,14.10
2022-09-24T05:20:25.464Z,14.10
2022-09-24T05:22:53.460Z,14.20
2022-09-24T05:25:23.048Z,14.20
2022-09-24T05:27:51.293Z,14.00
2022-09-24T05:30:21.050Z,14.10
2022-09-24T05:32:49.545Z,14.10
2022-09-24T05:35:17.925Z,14.20
2022-09-24T05:37:49.533Z,14.20
2022-09-24T05:40:35.586Z,14.20
2022-09-24T05:43:04.346Z,14.20
2022-09-24T05:45:33.257Z,14.30
2022-09-24T05:52:59.629Z,14.00
2022-09-24T05:55:31.565Z,14.00
2022-09-24T06:00:32.564Z,14.00
2022-09-24T06:03:06.749Z,14.00
2022-09-24T06:05:35.490Z,14.00
2022-09-24T06:08:05.728Z,14.00
2022-09-24T06:10:33.822Z,14.10
2022-09-24T06:13:01.823Z,14.10
2022-09-24T06:15:30.942Z,14.10
2022-09-24T06:17:58.927Z,14.20
2022-09-24T06:20:27.030Z,13.90
2022-09-24T06:22:57.386Z,14.00
2022-09-24T06:25:27.319Z,14.00
2022-09-24T06:28:00.422Z,14.10
2022-09-24T06:30:29.640Z,14.20
2022-09-24T06:33:05.122Z,14.30
2022-09-24T06:35:34.550Z,14.20
2022-09-24T06:38:02.567Z,14.30
2022-09-24T06:40:36.645Z,14.10
2022-09-24T06:43:06.336Z,14.20
2022-09-24T06:45:34.913Z,14.10
2022-09-24T06:48:05.148Z,14.20
2022-09-24T06:50:35.548Z,14.20
2022-09-24T06:53:06.395Z,14.30
2022-09-24T06:58:06.388Z,14.20
2022-09-24T07:00:35.293Z,14.20
2022-09-24T07:03:03.573Z,14.40
2022-09-24T07:05:31.590Z,14.40
2022-09-24T07:07:59.613Z,14.30
2022-09-24T07:10:28.112Z,14.30
2022-09-24T07:12:57.487Z,14.20
2022-09-24T07:15:25.521Z,14.30
2022-09-24T07:17:56.571Z,14.30
2022-09-24T07:20:24.851Z,14.30
2022-09-24T07:22:52.852Z,14.20
2022-09-24T07:25:20.896Z,14.30
2022-09-24T07:27:48.965Z,14.30
2022-09-24T07:30:18.527Z,14.30
2022-09-24T07:32:46.598Z,14.30
2022-09-24T07:35:14.893Z,14.40
2022-09-24T07:37:42.882Z,14.40
2022-09-24T07:40:11.989Z,14.40
2022-09-24T07:45:18.397Z,14.50
2022-09-24T07:47:46.422Z,14.30
2022-09-24T07:50:14.655Z,14.30
2022-09-24T07:52:42.660Z,14.40
2022-09-24T07:55:10.886Z,14.30
2022-09-24T07:57:39.388Z,14.30
2022-09-24T08:00:09.047Z,14.20
2022-09-24T08:02:38.498Z,14.30
2022-09-24T08:05:07.359Z,14.30
2022-09-24T08:07:35.448Z,14.30
2022-09-24T08:10:03.454Z,14.40
2022-09-24T08:12:31.641Z,14.40
2022-09-24T08:14:59.958Z,14.40
2022-09-24T08:17:28.015Z,14.50
2022-09-24T08:19:57.750Z,14.40
2022-09-24T08:22:26.416Z,14.30
2022-09-24T08:24:54.903Z,14.40
2022-09-24T08:27:23.875Z,14.40
2022-09-24T08:29:51.953Z,14.40
2022-09-24T08:32:20.004Z,14.40
2022-09-24T08:34:48.029Z,14.40
2022-09-24T08:37:17.464Z,14.50
2022-09-24T08:39:45.490Z,14.40
2022-09-24T08:42:22.196Z,14.30
2022-09-24T08:45:09.559Z,14.30
2022-09-24T08:47:43.390Z,14.30
2022-09-24T08:50:17.385Z,14.30
2022-09-24T08:53:02.681Z,14.30
2022-09-24T08:55:35.727Z,14.40
2022-09-24T08:58:18.101Z,14.50
2022-09-24T09:00:52.792Z,14.50
2022-09-24T09:03:31.615Z,14.50
2022-09-24T09:06:04.644Z,14.50
2022-09-24T09:09:05.191Z,14.50
2022-09-24T09:11:33.699Z,14.60
2022-09-24T09:14:05.494Z,14.60
2022-09-24T09:16:41.548Z,14.70
2022-09-24T09:19:14.330Z,14.70
2022-09-24T09:21:45.090Z,14.70
2022-09-24T09:24:20.638Z,14.70
2022-09-24T09:26:50.358Z,14.70
2022-09-24T09:29:18.649Z,14.70
2022-09-24T09:31:56.269Z,14.60
2022-09-24T09:34:43.943Z,14.70
2022-09-24T09:37:25.924Z,14.70
2022-09-24T09:40:05.245Z,14.80
2022-09-24T09:42:36.342Z,14.80
2022-09-24T09:45:16.199Z,14.80
2022-09-24T09:47:47.447Z,14.70
2022-09-24T09:50:24.762Z,15.20
2022-09-24T09:52:53.193Z,14.80
2022-09-24T09:55:24.624Z,14.70
2022-09-24T10:07:58.135Z,14.70
2022-09-24T10:10:28.895Z,13.80
2022-09-24T10:13:08.829Z,14.70
2022-09-24T10:15:49.186Z,14.60
2022-09-24T10:18:18.312Z,14.60
2022-09-24T10:20:48.638Z,14.70
2022-09-24T10:23:22.083Z,14.70
2022-09-24T10:25:59.696Z,14.70
2022-09-24T10:28:46.132Z,14.70
2022-09-24T10:31:16.553Z,14.90
2022-09-24T10:33:47.043Z,15.00
2022-09-24T10:36:17.379Z,15.00
2022-09-24T10:38:45.751Z,15.00
2022-09-24T10:41:27.297Z,15.10
2022-09-24T10:43:56.625Z,15.10
2022-09-24T10:46:56.219Z,15.10
2022-09-24T10:49:36.687Z,15.10
2022-09-24T10:52:19.908Z,15.00
2022-09-24T10:54:58.694Z,15.20
2022-09-24T10:57:35.029Z,15.10
2022-09-24T11:00:10.589Z,15.00
2022-09-24T11:03:06.949Z,15.20
2022-09-24T11:05:38.885Z,15.20
2022-09-24T11:08:17.503Z,15.10
2022-09-24T11:11:18.234Z,15.50
2022-09-24T11:13:55.876Z,15.00
2022-09-24T11:16:51.168Z,15.00
2022-09-24T11:19:36.695Z,15.20
2022-09-24T11:22:12.691Z,15.10
2022-09-24T11:27:40.634Z,14.90
2022-09-24T11:32:56.604Z,14.60
2022-09-24T11:35:41.025Z,14.70
2022-09-24T11:38:14.817Z,14.50
2022-09-24T11:41:05.017Z,14.60
2022-09-24T11:46:27.030Z,14.60
2022-09-24T11:49:24.664Z,14.80
2022-09-24T11:51:57.890Z,14.60
2022-09-24T11:54:31.014Z,14.50
2022-09-24T11:57:05.150Z,14.60
2022-09-24T11:59:39.366Z,14.60
2022-09-24T12:02:19.359Z,14.60
2022-09-24T12:04:54.550Z,14.70
2022-09-24T12:07:27.746Z,14.70
2022-09-24T12:12:32.343Z,14.70
2022-09-24T12:15:03.503Z,14.70
2022-09-24T12:17:39.371Z,14.60
2022-09-24T12:20:19.981Z,14.60
2022-09-24T12:22:49.871Z,14.60
2022-09-24T12:25:18.343Z,14.50
2022-09-24T12:27:47.390Z,14.40
2022-09-24T12:30:43.080Z,14.40
2022-09-24T12:48:39.880Z,14.50
2022-09-24T12:51:10.455Z,14.50
2022-09-24T12:53:41.422Z,14.50
2022-09-24T12:56:11.413Z,14.40
2022-09-24T13:01:14.578Z,14.30
2022-09-24T13:03:47.265Z,14.30
2022-09-24T13:06:31.281Z,14.30
2022-09-24T13:08:59.602Z,14.30
2022-09-24T13:11:30.794Z,14.30
2022-09-24T13:14:21.663Z,14.50
2022-09-24T13:16:53.367Z,14.40
2022-09-24T13:21:58.730Z,14.40
2022-09-24T13:24:31.810Z,14.40
2022-09-24T13:30:21.474Z,14.50
2022-09-24T13:32:57.110Z,14.70
2022-09-24T13:35:29.986Z,14.60
2022-09-24T13:40:39.310Z,14.40
2022-09-24T13:43:13.805Z,14.70
2022-09-24T13:45:45.611Z,14.30
2022-09-24T13:48:26.307Z,14.40
2022-09-24T13:50:56.306Z,14.40
2022-09-24T13:53:30.822Z,14.60
2022-09-24T13:56:01.250Z,14.50
2022-09-24T13:58:30.081Z,14.60
2022-09-24T14:00:59.880Z,14.70
2022-09-24T14:03:30.934Z,14.70
2022-09-24T14:06:00.740Z,14.70
2022-09-24T14:08:31.013Z,14.80
2022-09-24T14:11:18.317Z,14.70
2022-09-24T14:13:46.769Z,14.70
2022-09-24T14:16:17.898Z,14.80
2022-09-24T14:18:46.168Z,14.90
2022-09-24T14:21:22.115Z,15.10
2022-09-24T14:23:54.855Z,15.00
2022-09-24T14:26:31.136Z,15.10
2022-09-24T14:29:01.083Z,15.00
2022-09-24T14:31:29.485Z,14.90
2022-09-24T14:33:58.663Z,15.10
2022-09-24T14:36:37.358Z,15.10
2022-09-24T14:39:06.753Z,15.20
2022-09-24T14:41:37.155Z,15.30
2022-09-24T14:44:08.858Z,15.20
2022-09-24T14:46:41.554Z,15.20
2022-09-24T14:49:20.655Z,15.20
2022-09-24T14:51:55.407Z,15.20
2022-09-24T14:54:29.602Z,15.10
2022-09-24T14:56:57.650Z,15.30
2022-09-24T14:59:30.819Z,15.30
2022-09-24T15:02:17.747Z,15.30
2022-09-24T15:04:48.627Z,15.10
2022-09-24T15:07:24.588Z,15.30
2022-09-24T15:09:54.738Z,15.40
2022-09-24T15:12:30.727Z,15.20
2022-09-24T15:15:00.782Z,15.20
2022-09-24T15:17:32.740Z,15.20
2022-09-24T15:20:01.264Z,15.20
2022-09-24T15:22:31.892Z,15.20
2022-09-24T15:25:02.216Z,15.20
2022-09-24T15:27:32.284Z,15.30
2022-09-24T15:30:02.156Z,15.30
2022-09-24T15:32:32.561Z,15.30
2022-09-24T15:35:01.804Z,15.30
2022-09-24T15:37:32.154Z,15.30
2022-09-24T15:40:07.939Z,15.30
2022-09-24T15:42:36.066Z,15.30
2022-09-24T15:45:04.197Z,15.30
2022-09-24T15:47:32.234Z,15.30
2022-09-24T15:50:00.266Z,15.30
2022-09-24T15:52:32.743Z,15.30
2022-09-24T15:55:03.948Z,15.40
2022-09-24T15:57:31.966Z,15.40
2022-09-24T16:00:00.401Z,15.40
2022-09-24T16:02:31.860Z,15.40
2022-09-24T16:05:03.579Z,15.40
2022-09-24T16:07:33.393Z,15.60
2022-09-24T16:10:01.415Z,15.50
2022-09-24T16:12:29.476Z,15.60
2022-09-24T16:14:59.266Z,15.50
2022-09-24T16:17:27.461Z,15.60
2022-09-24T16:19:55.895Z,15.60
2022-09-24T16:22:23.942Z,15.60
2022-09-24T16:24:54.164Z,15.50
2022-09-24T16:27:22.173Z,15.50
2022-09-24T16:29:50.254Z,15.50
2022-09-24T16:32:18.423Z,15.60
2022-09-24T16:34:46.760Z,15.60
2022-09-24T16:37:16.588Z,15.50
2022-09-24T16:39:44.622Z,15.60
2022-09-24T16:42:14.053Z,15.60
2022-09-24T16:44:42.021Z,15.60
2022-09-24T16:47:10.061Z,15.60
2022-09-24T16:49:38.067Z,15.70
2022-09-24T16:52:06.243Z,15.70
2022-09-24T16:54:36.765Z,15.60
2022-09-24T16:57:06.218Z,15.70
2022-09-24T16:59:35.817Z,15.70
2022-09-24T17:02:03.948Z,15.60
2022-09-24T17:04:32.061Z,15.60
2022-09-24T17:07:00.712Z,15.60
2022-09-24T17:09:46.275Z,15.70
2022-09-24T17:12:16.608Z,15.70
2022-09-24T17:14:46.063Z,15.60
2022-09-24T17:17:14.071Z,15.70
2022-09-24T17:19:42.091Z,15.70
2022-09-24T17:22:10.104Z,15.60
2022-09-24T17:24:40.070Z,15.80
2022-09-24T17:27:08.569Z,15.70
2022-09-24T17:29:36.611Z,15.70
2022-09-24T17:32:06.008Z,15.60
2022-09-24T17:34:34.284Z,15.60
2022-09-24T17:37:02.297Z,15.60
2022-09-24T17:39:30.886Z,15.50
2022-09-24T17:41:58.896Z,15.60
2022-09-24T17:44:26.947Z,15.60
2022-09-24T17:46:54.996Z,15.40
2022-09-24T17:49:24.450Z,15.50
2022-09-24T17:51:52.482Z,15.40
2022-09-24T17:54:23.346Z,15.40
2022-09-24T17:56:51.435Z,15.40
2022-09-24T17:59:24.162Z,15.40
2022-09-24T18:01:54.459Z,15.50
2022-09-24T18:04:25.692Z,15.40
2022-09-24T18:11:52.438Z,15.50
2022-09-24T18:14:22.225Z,15.30
2022-09-24T18:16:51.252Z,15.40
2022-09-24T18:19:19.495Z,15.30
2022-09-24T18:21:49.819Z,15.20
2022-09-24T18:24:17.911Z,15.30
2022-09-24T18:26:49.549Z,15.30
2022-09-24T18:29:20.281Z,15.30
2022-09-24T18:31:49.322Z,15.20
2022-09-24T18:34:17.626Z,15.20
2022-09-24T18:36:46.763Z,15.30
2022-09-24T18:41:53.354Z,15.10
2022-09-24T18:44:21.363Z,15.70
2022-09-24T18:46:49.896Z,15.30
2022-09-24T18:49:19.381Z,15.20
2022-09-24T18:51:47.642Z,15.20
2022-09-24T18:54:18.281Z,15.10
2022-09-24T18:56:46.893Z,15.10
2022-09-24T18:59:17.178Z,15.20
2022-09-24T19:01:46.881Z,15.20
2022-09-24T19:04:15.935Z,15.10
2022-09-24T19:11:47.345Z,14.90
2022-09-24T19:14:18.031Z,14.90
2022-09-24T19:16:47.174Z,14.90
2022-09-24T19:19:16.088Z,14.90
2022-09-24T19:21:44.284Z,14.80
2022-09-24T19:24:12.973Z,14.80
2022-09-24T19:26:41.013Z,14.90
2022-09-24T19:29:10.512Z,14.90
2022-09-24T19:31:40.840Z,14.80
2022-09-24T19:34:11.611Z,14.80
2022-09-24T19:36:43.628Z,14.70
2022-09-24T19:39:13.745Z,14.80
2022-09-24T19:41:41.929Z,14.80
2022-09-24T19:44:11.851Z,14.80
2022-09-24T19:46:40.396Z,14.90
2022-09-24T19:49:08.695Z,14.80
2022-09-24T19:51:37.380Z,14.80
2022-09-24T19:54:07.822Z,14.80
2022-09-24T19:56:36.152Z,14.80
2022-09-24T19:59:05.036Z,14.80
2022-09-24T20:01:34.894Z,14.90
2022-09-24T20:04:05.865Z,14.90
2022-09-24T20:06:35.910Z,14.90
2022-09-24T20:09:04.186Z,14.80
2022-09-24T20:11:32.876Z,14.90
2022-09-24T20:14:01.742Z,15.00
2022-09-24T20:16:32.557Z,14.90
2022-09-24T20:19:03.384Z,14.90
2022-09-24T20:21:34.766Z,14.90
2022-09-24T20:24:03.882Z,14.80
2022-09-24T20:26:49.528Z,14.80
2022-09-24T20:29:19.577Z,14.90
2022-09-24T20:31:51.913Z,14.80
2022-09-24T20:34:22.989Z,14.80
2022-09-24T20:36:51.337Z,14.80
2022-09-24T20:39:19.618Z,14.80
2022-09-24T20:41:49.443Z,14.80
2022-09-24T20:44:17.619Z,14.80
2022-09-24T20:46:45.700Z,14.80
2022-09-24T20:49:19.655Z,14.70
2022-09-24T20:51:54.113Z,14.70
2022-09-24T20:54:26.892Z,14.70
2022-09-24T20:56:54.951Z,14.60
2022-09-24T20:59:24.341Z,14.70
2022-09-24T21:01:53.176Z,14.70
2022-09-24T21:09:20.471Z,15.10
2022-09-24T21:11:50.125Z,14.90
2022-09-24T21:14:18.605Z,14.60
2022-09-24T21:16:46.756Z,14.70
2022-09-24T21:19:15.856Z,14.60
2022-09-24T21:24:15.688Z,14.70
2022-09-24T21:26:44.883Z,14.70
2022-09-24T21:29:16.459Z,14.60
2022-09-24T21:36:45.626Z,14.50
2022-09-24T21:39:16.982Z,14.60
2022-09-24T21:41:48.100Z,14.60
2022-09-24T21:44:17.529Z,14.80
2022-09-24T21:46:46.183Z,14.60
2022-09-24T21:49:14.284Z,14.50
2022-09-24T21:51:44.430Z,14.50
2022-09-24T22:07:17.718Z,14.40
2022-09-24T22:09:45.790Z,14.40
2022-09-24T22:12:15.404Z,14.40
2022-09-24T22:14:44.918Z,14.40
2022-09-24T22:17:13.421Z,14.40
2022-09-24T22:19:41.741Z,14.40
2022-09-24T22:22:09.749Z,14.50
2022-09-24T22:24:37.767Z,14.50
2022-09-24T22:27:05.868Z,14.50
2022-09-24T22:29:35.236Z,14.60
2022-09-24T22:32:04.291Z,14.50
2022-09-24T22:34:58.415Z,14.40
2022-09-24T22:37:27.209Z,14.50
2022-09-24T22:39:55.258Z,14.40
2022-09-24T22:42:23.335Z,13.30
2022-09-24T22:44:52.742Z,14.50
2022-09-24T22:57:14.134Z,14.30
2022-09-24T22:59:42.156Z,14.30
2022-09-24T23:02:13.289Z,14.20
2022-09-24T23:04:41.764Z,14.20
2022-09-24T23:07:10.545Z,14.20
2022-09-24T23:09:38.528Z,14.20
2022-09-24T23:12:06.643Z,14.20
2022-09-24T23:14:35.124Z,14.20
2022-09-24T23:17:03.228Z,14.20
2022-09-24T23:19:46.496Z,14.20
2022-09-24T23:22:14.520Z,14.20
2022-09-24T23:24:42.567Z,14.10
2022-09-24T23:27:10.598Z,14.10
2022-09-24T23:29:38.596Z,14.10
2022-09-24T23:32:06.931Z,14.00
2022-09-24T23:34:36.294Z,14.00
2022-09-24T23:37:04.407Z,13.90
2022-09-24T23:39:32.455Z,14.00
2022-09-24T23:42:00.479Z,14.00
2022-09-24T23:44:28.507Z,13.90
